Time;durP1;ratioP1;P1;durP2;ratioP2;P2;SDS_P1;SDS_P2;PMS_P1;PMS_P2;Temp;Humidity;BMP_temperature;BMP_pressure;BME280_temperature;BME280_humidity;BME280_pressure;Samples;Min_cycle;Max_cycle;Signal;HPM_P1;HPM_P2
2023/06/03 00:01:40;;;;;;;;;;;19.20;43.10;;;15.38;67.58;95255.13;5034794;28;20015;-50
2023/06/03 00:04:06;;;;;;;;;;;19.20;43.20;;;15.31;67.62;95252.06;5033723;28;19999;-49
2023/06/03 00:06:32;;;;;;;;;;;19.10;43.10;;;15.31;67.65;95257.44;5034158;28;19923;-46
2023/06/03 00:08:58;;;;;;;;;;;19.10;43.20;;;15.30;67.64;95259.31;5033632;28;19908;-47
2023/06/03 00:11:24;;;;;;;;;;;19.10;43.20;;;15.28;67.47;95261.50;5034674;28;19913;-50
2023/06/03 00:13:50;;;;;;;;;;;19.10;43.40;;;15.27;67.59;95267.97;5034594;28;20267;-47
2023/06/03 00:16:16;;;;;;;;;;;19.10;43.40;;;15.22;67.56;95260.03;5033511;28;19916;-48
2023/06/03 00:18:42;;;;;;;;;;;19.00;43.40;;;15.16;67.90;95263.91;5034412;28;19913;-49
2023/06/03 00:21:09;;;;;;;;;;;19.00;43.50;;;15.12;67.61;95262.94;5033377;28;20389;-48
2023/06/03 00:23:36;;;;;;;;;;;19.00;43.50;;;15.09;67.99;95269.69;5034671;28;19921;-49
2023/06/03 00:26:03;;;;;;;;;;;18.90;43.50;;;15.00;67.75;95272.28;5034248;28;19909;-52
2023/06/03 00:28:28;;;;;;;;;;;18.80;43.40;;;14.93;67.93;95271.09;5048493;28;19909;-51
2023/06/03 00:30:54;;;;;;;;;;;18.80;43.50;;;14.93;67.08;95274.56;5034175;28;19931;-50
2023/06/03 00:33:20;;;;;;;;;;;18.80;43.60;;;14.94;66.91;95286.88;5033416;28;19962;-47
2023/06/03 00:35:45;;;;;;;;;;;18.80;43.60;;;14.92;66.67;95285.63;5034126;28;19908;-47
2023/06/03 00:38:11;;;;;;;;;;;18.70;43.60;;;14.90;66.75;95296.63;5033636;28;19966;-52
2023/06/03 00:40:37;;;;;;;;;;;18.70;43.60;;;14.86;67.50;95294.84;5033068;28;19954;-47
2023/06/03 00:43:02;;;;;;;;;;;18.70;43.60;;;14.80;67.01;95288.78;5034089;28;19943;-51
2023/06/03 00:45:28;;;;;;;;;;;18.60;43.50;;;14.71;67.52;95293.25;5032892;28;20362;-47
2023/06/03 00:47:54;;;;;;;;;;;18.60;44.10;;;14.68;67.23;95291.94;5033770;28;19966;-50
2023/06/03 00:50:21;;;;;;;;;;;18.60;43.50;;;14.60;68.10;95298.00;5033025;28;19920;-49
2023/06/03 00:52:48;;;;;;;;;;;18.50;43.50;;;14.52;68.01;95296.81;5031136;28;19970;-50
2023/06/03 00:55:14;;;;;;;;;;;18.40;43.50;;;14.39;69.49;95283.38;5034341;28;19912;-48
2023/06/03 00:57:40;;;;;;;;;;;18.40;43.60;;;14.29;70.08;95295.03;5022036;28;19909;-48
2023/06/03 01:00:07;;;;;;;;;;;18.30;43.60;;;14.23;70.30;95293.56;5025584;28;19916;-50
2023/06/03 01:02:34;;;;;;;;;;;18.20;43.60;;;14.21;70.44;95285.00;5033184;28;20662;-48
2023/06/03 01:05:03;;;;;;;;;;;18.20;43.70;;;14.21;70.49;95299.19;5034237;28;19958;-48
2023/06/03 01:08:13;;;;;;;;;;;18.10;43.80;;;14.16;70.50;95291.22;5033747;28;19988;-46
2023/06/03 01:11:07;;;;;;;;;;;18.00;43.90;;;14.05;71.36;95290.63;5042327;28;20294;-48
2023/06/03 01:13:47;;;;;;;;;;;18.00;44.00;;;14.01;71.74;95289.63;5041072;28;20405;-51
2023/06/03 01:16:18;;;;;;;;;;;17.90;44.10;;;13.91;72.06;95283.63;5025949;28;20338;-48
2023/06/03 01:18:48;;;;;;;;;;;17.90;44.20;;;13.93;72.09;95282.25;5032985;28;19913;-49
2023/06/03 01:21:16;;;;;;;;;;;17.90;44.30;;;13.87;72.50;95291.44;5048082;28;19916;-53
2023/06/03 01:23:44;;;;;;;;;;;17.80;44.30;;;13.78;73.12;95288.63;5020609;28;19962;-51
2023/06/03 01:26:11;;;;;;;;;;;17.70;44.50;;;13.73;73.21;95293.28;5033908;28;19908;-49
2023/06/03 01:28:41;;;;;;;;;;;17.70;44.40;;;13.63;73.47;95284.34;5048704;28;19999;-49
2023/06/03 01:31:07;;;;;;;;;;;17.60;44.40;;;13.52;73.66;95287.44;5034072;28;20368;-49
2023/06/03 01:33:35;;;;;;;;;;;17.50;44.50;;;13.40;74.64;95295.91;5032408;28;19920;-49
2023/06/03 01:36:04;;;;;;;;;;;17.40;44.60;;;13.24;75.99;95292.59;5032966;28;19915;-51
2023/06/03 01:38:31;;;;;;;;;;;17.30;44.80;;;13.11;77.01;95287.97;5032792;28;19909;-46
2023/06/03 01:40:57;;;;;;;;;;;17.20;44.80;;;12.93;78.77;95286.84;5033849;28;19919;-49
2023/06/03 01:43:23;;;;;;;;;;;17.20;45.00;;;12.94;77.72;95283.91;5033674;28;20028;-48
2023/06/03 01:45:49;;;;;;;;;;;17.10;45.10;;;12.94;77.58;95278.56;5047935;28;19995;-50
2023/06/03 01:48:15;;;;;;;;;;;17.10;45.90;;;12.94;77.64;95273.22;5033554;28;20386;-48
2023/06/03 01:50:42;;;;;;;;;;;17.00;45.60;;;12.94;77.43;95275.88;5032335;28;20043;-46
2023/06/03 01:53:09;;;;;;;;;;;16.90;45.70;;;12.92;77.95;95286.06;5033427;28;20019;-47
2023/06/03 01:55:35;;;;;;;;;;;16.90;45.70;;;12.81;78.67;95284.56;5033605;28;20317;-46
2023/06/03 01:58:02;;;;;;;;;;;16.90;45.80;;;12.80;78.66;95283.00;5032412;28;20475;-52
2023/06/03 02:00:28;;;;;;;;;;;16.90;45.80;;;12.80;79.09;95284.88;5033365;28;19908;-51
2023/06/03 02:02:54;;;;;;;;;;;16.80;45.80;;;12.83;78.58;95285.09;5031558;28;19920;-48
2023/06/03 02:05:20;;;;;;;;;;;16.80;45.90;;;12.81;78.12;95289.91;5033216;28;19919;-51
2023/06/03 02:07:46;;;;;;;;;;;16.80;46.00;;;12.69;79.59;95285.00;5033355;28;19916;-48
2023/06/03 02:10:12;;;;;;;;;;;16.70;46.00;;;12.68;79.22;95290.63;5031705;28;20379;-47
2023/06/03 02:12:38;;;;;;;;;;;16.70;46.20;;;12.68;79.29;95293.28;5032797;28;19913;-46
2023/06/03 02:15:07;;;;;;;;;;;16.70;46.40;;;12.66;79.04;95293.59;5031891;28;19909;-46
2023/06/03 02:17:33;;;;;;;;;;;16.60;46.40;;;12.63;79.31;95296.00;5032628;28;20033;-48
2023/06/03 02:19:59;;;;;;;;;;;16.60;46.50;;;12.61;79.08;95300.84;5048519;28;19909;-52
2023/06/03 02:22:26;;;;;;;;;;;16.60;46.50;;;12.56;79.68;95300.91;5031896;28;20409;-47
2023/06/03 02:24:52;;;;;;;;;;;16.60;46.60;;;12.48;80.83;95300.44;5028396;28;19916;-50
2023/06/03 02:27:24;;;;;;;;;;;16.50;46.60;;;12.39;80.32;95299.47;5031530;28;19959;-52
2023/06/03 02:29:51;;;;;;;;;;;16.50;46.60;;;12.29;80.97;95309.47;5032611;28;19954;-49
2023/06/03 02:32:21;;;;;;;;;;;16.40;46.70;;;12.19;82.00;95303.13;5032007;28;20301;-48
2023/06/03 02:34:50;;;;;;;;;;;16.30;46.80;;;12.09;82.63;95305.09;5024513;28;20318;-46
2023/06/03 02:37:16;;;;;;;;;;;16.20;46.80;;;11.95;84.67;95304.94;5048045;28;20003;-47
2023/06/03 02:39:45;;;;;;;;;;;16.20;46.90;;;11.90;84.63;95304.97;5031687;28;19908;-46
2023/06/03 02:42:11;;;;;;;;;;;16.10;47.00;;;11.90;84.01;95304.97;5047686;28;19915;-47
2023/06/03 02:44:37;;;;;;;;;;;16.00;47.10;;;11.82;84.79;95304.47;5031172;28;19908;-47
2023/06/03 02:47:04;;;;;;;;;;;16.00;47.20;;;11.76;84.73;95305.59;5031735;28;20286;-46
2023/06/03 02:49:30;;;;;;;;;;;15.90;47.30;;;11.74;84.01;95310.41;5031194;28;19913;-47
2023/06/03 02:51:57;;;;;;;;;;;15.90;47.40;;;11.69;84.46;95310.44;5030835;28;20374;-51
2023/06/03 02:54:22;;;;;;;;;;;15.80;47.50;;;11.64;84.50;95313.16;5032472;28;20376;-47
2023/06/03 02:56:49;;;;;;;;;;;15.80;47.60;;;11.58;85.08;95308.91;5031260;28;20011;-47
2023/06/03 02:59:14;;;;;;;;;;;15.70;47.70;;;11.53;84.10;95315.09;5032449;28;19940;-52
2023/06/03 03:01:40;;;;;;;;;;;15.70;48.40;;;11.42;87.34;95312.75;5032312;28;19951;-48
2023/06/03 03:04:06;;;;;;;;;;;15.60;47.80;;;11.35;87.92;95313.84;5031283;28;20011;-46
2023/06/03 03:06:32;;;;;;;;;;;15.60;47.90;;;11.34;87.73;95308.78;5032151;28;20446;-48
2023/06/03 03:08:58;;;;;;;;;;;15.50;48.00;;;11.31;88.43;95304.81;5031249;28;19916;-45
2023/06/03 03:11:24;;;;;;;;;;;15.50;48.10;;;11.31;87.69;95312.81;5031867;28;19910;-48
2023/06/03 03:13:49;;;;;;;;;;;15.40;48.20;;;11.32;87.11;95316.28;5032445;28;20301;-47
2023/06/03 03:16:18;;;;;;;;;;;15.40;48.30;;;11.26;87.26;95310.16;5037970;28;19908;-48
2023/06/03 03:18:44;;;;;;;;;;;15.40;48.40;;;11.21;87.36;95318.19;5021550;28;19964;-47
2023/06/03 03:21:10;;;;;;;;;;;15.30;48.50;;;11.17;88.11;95316.34;5031009;28;19913;-48
2023/06/03 03:23:36;;;;;;;;;;;15.30;48.50;;;11.15;89.03;95313.16;5028232;28;20016;-47
2023/06/03 03:26:07;;;;;;;;;;;15.30;48.60;;;11.13;89.38;95316.13;5027717;28;20000;-49
2023/06/03 03:28:33;;;;;;;;;;;15.30;48.70;;;11.18;88.72;95315.28;5030523;28;19909;-47
2023/06/03 03:30:59;;;;;;;;;;;15.30;48.80;;;11.17;87.06;95311.81;5031827;28;19916;-46
2023/06/03 03:33:25;;;;;;;;;;;15.20;48.80;;;11.23;86.41;95313.38;5030873;28;19935;-49
2023/06/03 03:35:52;;;;;;;;;;;15.20;49.00;;;11.25;86.17;95313.91;5031945;28;20363;-47
2023/06/03 03:38:18;;;;;;;;;;;15.30;49.00;;;11.31;85.70;95318.16;5027369;28;20000;-51
2023/06/03 03:40:44;;;;;;;;;;;15.30;49.10;;;11.35;85.49;95313.84;5028242;28;20058;-45
2023/06/03 03:43:16;;;;;;;;;;;15.30;49.20;;;11.37;85.23;95313.56;5031095;28;19908;-47
2023/06/03 03:45:42;;;;;;;;;;;15.30;49.20;;;11.42;84.70;95310.09;5030084;28;20011;-47
2023/06/03 03:48:15;;;;;;;;;;;15.40;49.30;;;11.46;84.38;95316.47;5031040;28;20298;-47
2023/06/03 03:50:52;;;;;;;;;;;15.40;49.30;;;11.47;84.31;95318.88;5016424;28;20485;-46
2023/06/03 03:53:22;;;;;;;;;;;15.50;49.30;;;11.51;84.08;95314.56;5030725;28;19924;-48
2023/06/03 03:55:53;;;;;;;;;;;15.50;49.30;;;11.54;83.61;95308.69;5031024;28;19909;-50
2023/06/03 03:58:34;;;;;;;;;;;15.60;49.30;;;11.60;83.47;95314.78;5027456;28;19915;-50
2023/06/03 04:01:09;;;;;;;;;;;15.60;49.40;;;11.63;83.14;95314.22;5022089;28;19995;-50
2023/06/03 04:03:40;;;;;;;;;;;15.60;49.40;;;11.67;82.67;95317.94;5044239;28;19909;-50
2023/06/03 04:06:36;;;;;;;;;;;15.70;49.40;;;11.69;82.84;95313.13;5030929;28;19908;-48
2023/06/03 04:09:04;;;;;;;;;;;15.80;49.40;;;11.73;82.52;95313.34;5020386;28;19920;-50
2023/06/03 04:11:37;;;;;;;;;;;15.80;49.40;;;11.76;82.40;95313.59;5030350;28;19908;-48
2023/06/03 04:14:08;;;;;;;;;;;15.80;49.40;;;11.83;81.96;95318.59;5030371;28;19938;-47
2023/06/03 04:16:41;;;;;;;;;;;15.90;49.40;;;11.94;81.23;95316.69;5028756;28;19915;-48
2023/06/03 04:19:41;;;;;;;;;;;15.90;49.40;;;11.98;80.87;95323.88;5030738;28;20359;-47
2023/06/03 04:22:10;;;;;;;;;;;16.00;49.40;;;12.00;81.23;95321.72;5021641;28;20325;-49
2023/06/03 04:24:41;;;;;;;;;;;16.10;49.30;;;12.02;80.68;95321.44;5030890;28;20023;-53
2023/06/03 04:27:08;;;;;;;;;;;16.10;49.30;;;12.18;80.38;95316.75;5044521;28;20353;-46
2023/06/03 04:29:34;;;;;;;;;;;16.20;49.30;;;12.36;79.88;95325.94;5030613;28;19912;-47
2023/06/03 04:32:00;;;;;;;;;;;16.30;49.20;;;12.49;78.57;95325.28;5030382;28;19917;-47
2023/06/03 04:34:29;;;;;;;;;;;16.40;49.30;;;12.66;77.52;95322.97;5029491;28;20332;-49
2023/06/03 04:36:56;;;;;;;;;;;16.50;49.10;;;12.77;76.89;95323.66;5030601;28;19962;-49
2023/06/03 04:39:21;;;;;;;;;;;16.60;49.10;;;12.88;76.43;95325.13;5029451;28;19912;-50
2023/06/03 04:41:48;;;;;;;;;;;16.80;49.00;;;13.00;76.05;95326.59;5033368;28;19916;-48
2023/06/03 04:44:15;;;;;;;;;;;16.90;48.90;;;13.11;75.59;95323.53;5032626;28;20426;-46
2023/06/03 04:46:42;;;;;;;;;;;17.00;48.80;;;13.22;74.73;95320.72;5033156;28;19930;-51
2023/06/03 04:49:08;;;;;;;;;;;17.10;48.70;;;13.28;74.48;95327.63;5026221;28;19916;-46
2023/06/03 04:51:34;;;;;;;;;;;17.30;48.60;;;13.19;74.87;95322.91;5032718;28;19912;-50
2023/06/03 04:54:03;;;;;;;;;;;17.30;48.50;;;13.18;75.50;95320.50;5029849;28;20317;-48
2023/06/03 04:56:29;;;;;;;;;;;17.30;48.40;;;13.16;75.88;95326.16;5048307;28;20432;-52
2023/06/03 04:59:03;;;;;;;;;;;17.40;48.40;;;13.29;76.31;95326.56;5033773;28;19948;-47
2023/06/03 05:01:31;;;;;;;;;;;17.40;48.40;;;13.49;75.76;95330.84;5033454;28;20038;-47
2023/06/03 05:03:57;;;;;;;;;;;17.50;48.30;;;13.67;75.62;95331.94;5032570;28;19919;-48
2023/06/03 05:06:23;;;;;;;;;;;17.70;48.30;;;13.78;74.83;95330.69;5033962;28;20267;-47
2023/06/03 05:08:50;;;;;;;;;;;17.80;48.30;;;13.81;74.31;95330.09;5032972;28;19915;-47
2023/06/03 05:11:18;;;;;;;;;;;17.90;48.30;;;13.89;74.64;95326.78;5033235;28;20286;-47
2023/06/03 05:13:44;;;;;;;;;;;18.00;48.20;;;14.02;73.13;95330.59;5033135;28;20005;-52
2023/06/03 05:16:11;;;;;;;;;;;18.20;48.10;;;14.28;72.70;95339.00;5032568;28;20007;-47
2023/06/03 05:18:38;;;;;;;;;;;18.40;48.00;;;14.47;70.72;95329.00;5033301;28;19908;-50
2023/06/03 05:21:06;;;;;;;;;;;18.60;47.90;;;14.67;70.19;95327.13;5032032;28;19931;-49
2023/06/03 05:23:31;;;;;;;;;;;18.80;47.70;;;14.81;69.32;95320.66;5020712;28;20281;-47
2023/06/03 05:25:57;;;;;;;;;;;19.00;47.50;;;14.98;68.67;95325.44;5028698;28;19909;-51
2023/06/03 05:28:25;;;;;;;;;;;19.20;47.40;;;15.16;68.07;95333.66;5032466;28;19909;-50
2023/06/03 05:30:51;;;;;;;;;;;19.40;47.20;;;15.20;67.61;95332.78;5031633;28;19950;-51
2023/06/03 05:33:28;;;;;;;;;;;19.70;47.00;;;15.36;67.08;95330.56;5031991;28;19952;-47
2023/06/03 05:35:53;;;;;;;;;;;19.80;46.80;;;15.52;66.17;95328.34;5033270;28;19908;-50
2023/06/03 05:38:20;;;;;;;;;;;20.00;46.60;;;15.61;65.81;95334.59;5032527;28;20003;-49
2023/06/03 05:40:48;;;;;;;;;;;20.20;46.40;;;15.77;65.51;95343.16;5031073;28;20003;-50
2023/06/03 05:43:15;;;;;;;;;;;20.40;46.20;;;15.91;64.98;95335.03;5031795;28;20661;-47
2023/06/03 05:45:41;;;;;;;;;;;20.60;46.00;;;16.11;65.01;95339.94;5027853;28;19958;-52
2023/06/03 05:48:08;;;;;;;;;;;20.70;45.80;;;16.17;63.82;95333.34;5032953;28;20003;-50
2023/06/03 05:50:46;;;;;;;;;;;20.90;45.60;;;16.29;62.92;95331.97;5030032;28;19916;-49
2023/06/03 05:53:12;;;;;;;;;;;21.10;45.40;;;16.29;63.57;95340.03;5033328;28;19928;-47
2023/06/03 05:55:37;;;;;;;;;;;21.20;45.20;;;16.31;63.33;95333.25;5032836;28;19913;-48
2023/06/03 05:58:03;;;;;;;;;;;21.30;45.00;;;16.40;62.75;95339.50;5031031;28;19909;-47
2023/06/03 06:00:29;;;;;;;;;;;21.40;44.80;;;16.41;62.08;95338.38;5036162;28;19916;-47
2023/06/03 06:02:55;;;;;;;;;;;21.50;44.70;;;16.39;62.54;95339.81;5030203;28;19916;-49
2023/06/03 06:05:21;;;;;;;;;;;21.50;44.50;;;16.51;61.88;95344.59;5032030;28;19916;-49
2023/06/03 06:07:47;;;;;;;;;;;21.70;44.40;;;16.72;61.84;95342.19;5031718;28;19915;-49
2023/06/03 06:10:13;;;;;;;;;;;21.80;44.20;;;16.88;61.13;95343.41;5029971;28;20046;-50
2023/06/03 06:12:38;;;;;;;;;;;22.10;44.10;;;16.95;61.17;95345.63;5030793;28;20011;-48
2023/06/03 06:15:07;;;;;;;;;;;22.20;44.00;;;16.96;61.09;95347.25;5029456;28;27769;-50
2023/06/03 06:17:33;;;;;;;;;;;22.20;43.80;;;16.70;61.59;95347.88;5032328;28;20008;-49
2023/06/03 06:19:59;;;;;;;;;;;22.20;43.50;;;16.70;61.74;95347.88;5030588;28;20044;-49
2023/06/03 06:22:25;;;;;;;;;;;22.30;43.40;;;16.63;61.83;95336.75;5029580;28;19913;-47
2023/06/03 06:24:51;;;;;;;;;;;22.30;43.30;;;16.65;61.83;95348.81;5031855;28;19913;-47
2023/06/03 06:27:17;;;;;;;;;;;22.20;43.20;;;16.71;62.15;95343.31;5029803;28;19909;-50
2023/06/03 06:29:43;;;;;;;;;;;22.20;43.20;;;16.94;60.95;95346.75;5051935;28;19912;-48
2023/06/03 06:32:21;;;;;;;;;;;22.40;43.10;;;17.18;61.40;95341.78;5031757;28;20277;-47
2023/06/03 06:34:47;;;;;;;;;;;22.60;42.90;;;17.50;60.48;95353.25;5046869;28;20349;-47
2023/06/03 06:37:13;;;;;;;;;;;23.00;42.80;;;17.73;58.81;95354.72;5031505;28;19992;-47
2023/06/03 06:39:47;;;;;;;;;;;23.20;42.60;;;17.97;58.37;95348.91;5030571;28;20003;-47
2023/06/03 06:42:25;;;;;;;;;;;23.50;42.40;;;18.17;58.04;95350.16;5031899;28;19958;-49
2023/06/03 06:44:51;;;;;;;;;;;23.70;42.10;;;18.46;57.10;95352.22;5031061;28;20015;-49
2023/06/03 06:47:25;;;;;;;;;;;24.00;41.90;;;18.68;56.40;95353.13;5031647;28;19909;-48
2023/06/03 06:49:55;;;;;;;;;;;24.20;41.60;;;18.93;55.01;95351.47;5030151;28;19909;-47
2023/06/03 06:52:25;;;;;;;;;;;24.50;41.50;;;19.03;55.18;95353.03;5027250;28;19913;-47
2023/06/03 06:54:54;;;;;;;;;;;24.70;41.20;;;19.10;55.28;95347.91;5032066;28;19932;-47
2023/06/03 06:57:23;;;;;;;;;;;24.90;40.80;;;19.21;54.20;95356.44;5031085;28;19916;-47
2023/06/03 06:59:53;;;;;;;;;;;25.10;40.60;;;19.27;54.44;95358.63;5031135;28;19948;-48
2023/06/03 07:02:20;;;;;;;;;;;25.20;40.30;;;19.56;54.31;95357.84;5031561;28;19912;-48
2023/06/03 07:04:49;;;;;;;;;;;25.30;40.20;;;19.85;53.86;95353.56;5029950;28;19969;-47
2023/06/03 07:07:15;;;;;;;;;;;25.50;40.00;;;20.00;53.18;95352.19;5030567;28;19912;-47
2023/06/03 07:09:41;;;;;;;;;;;25.70;39.90;;;20.21;52.06;95354.84;5030027;28;19912;-49
2023/06/03 07:12:08;;;;;;;;;;;25.90;39.80;;;20.27;52.46;95354.31;5031382;28;19914;-48
2023/06/03 07:14:35;;;;;;;;;;;26.10;39.50;;;20.32;52.11;95356.03;5029975;28;19925;-49
2023/06/03 07:17:02;;;;;;;;;;;26.30;39.40;;;20.43;51.02;95349.13;5031321;28;19963;-47
2023/06/03 07:19:37;;;;;;;;;;;26.40;39.10;;;20.38;51.21;95354.72;5030721;28;19909;-48
2023/06/03 07:22:07;;;;;;;;;;;26.60;38.80;;;20.54;50.71;95354.91;5030382;28;20010;-50
2023/06/03 07:24:37;;;;;;;;;;;26.70;38.60;;;20.85;50.78;95357.16;5031580;28;19908;-49
2023/06/03 07:27:07;;;;;;;;;;;26.80;39.10;;;20.98;49.39;95361.44;5029698;28;19909;-50
2023/06/03 07:29:38;;;;;;;;;;;27.00;38.40;;;21.07;49.37;95355.94;5030795;28;20321;-50
2023/06/03 07:32:08;;;;;;;;;;;27.10;38.10;;;21.12;49.39;95363.84;5031480;28;19921;-47
2023/06/03 07:34:34;;;;;;;;;;;27.30;38.00;;;21.27;49.59;95365.09;5019559;28;19970;-49
2023/06/03 07:37:06;;;;;;;;;;;27.40;37.80;;;21.54;48.34;95374.50;5031387;28;19916;-47
2023/06/03 07:39:33;;;;;;;;;;;27.50;37.70;;;21.71;47.87;95371.53;5044621;28;19909;-49
2023/06/03 07:41:58;;;;;;;;;;;27.70;37.50;;;21.87;47.13;95376.25;5031013;28;19913;-48
2023/06/03 07:44:45;;;;;;;;;;;27.90;37.40;;;22.00;46.91;95377.84;5030909;28;19916;-48
2023/06/03 07:47:16;;;;;;;;;;;28.00;37.10;;;22.00;46.78;95377.03;5028878;28;19916;-50
2023/06/03 07:49:47;;;;;;;;;;;28.20;36.90;;;22.24;46.33;95385.13;5030601;28;19962;-50
2023/06/03 07:52:21;;;;;;;;;;;28.30;36.80;;;22.46;45.60;95383.03;5029622;28;20363;-49
2023/06/03 07:54:48;;;;;;;;;;;28.50;36.50;;;22.77;44.82;95382.31;5030978;28;19936;-50
2023/06/03 07:57:14;;;;;;;;;;;28.70;36.40;;;23.13;45.02;95385.97;5045438;28;19916;-54
2023/06/03 08:00:00;;;;;;;;;;;28.90;36.40;;;23.22;43.96;95384.69;5029298;28;19944;-48
2023/06/03 08:02:26;;;;;;;;;;;29.10;36.10;;;23.54;44.04;95390.91;5018967;28;19930;-49
2023/06/03 08:04:55;;;;;;;;;;;29.40;35.90;;;23.24;43.66;95390.56;5030221;28;19909;-45
2023/06/03 08:07:22;;;;;;;;;;;29.60;35.70;;;23.54;43.77;95390.13;5031065;28;20454;-49
2023/06/03 08:09:48;;;;;;;;;;;29.70;35.50;;;23.84;43.11;95387.72;5029270;28;19920;-51
2023/06/03 08:12:15;;;;;;;;;;;29.90;35.20;;;23.82;41.89;95397.38;5046020;28;20357;-47
2023/06/03 08:14:41;;;;;;;;;;;30.10;35.10;;;23.89;41.73;95392.91;5029633;28;19929;-46
2023/06/03 08:17:09;;;;;;;;;;;30.20;34.80;;;23.97;41.12;95393.84;5034709;28;19908;-47
2023/06/03 08:19:36;;;;;;;;;;;30.40;34.60;;;23.92;41.07;95396.84;5034026;28;20386;-46
2023/06/03 08:22:06;;;;;;;;;;;30.50;34.30;;;24.30;41.17;95392.63;5033486;28;19994;-47
2023/06/03 08:24:32;;;;;;;;;;;30.60;34.10;;;24.42;40.35;95397.94;5030817;28;20007;-47
2023/06/03 08:26:57;;;;;;;;;;;30.80;34.00;;;24.51;40.94;95395.81;5024334;28;20315;-48
2023/06/03 08:29:23;;;;;;;;;;;30.90;33.80;;;24.79;40.46;95387.41;5033832;28;19916;-48
2023/06/03 08:31:49;;;;;;;;;;;31.10;33.70;;;25.04;40.10;95390.59;5034384;28;20008;-50
2023/06/03 08:34:15;;;;;;;;;;;31.20;33.50;;;25.09;40.49;95386.75;5032986;28;19923;-47
2023/06/03 08:36:40;;;;;;;;;;;31.40;33.40;;;25.53;40.59;95389.09;5034515;28;20283;-47
2023/06/03 08:39:07;;;;;;;;;;;31.60;33.30;;;25.49;39.61;95397.22;5033284;28;19909;-48
2023/06/03 08:41:40;;;;;;;;;;;31.80;33.20;;;25.47;40.12;95385.09;5049110;28;19936;-47
2023/06/03 08:44:49;;;;;;;;;;;31.90;32.90;;;25.16;40.14;95386.91;5033086;28;20386;-47
2023/06/03 08:47:43;;;;;;;;;;;32.00;32.70;;;24.87;40.95;95383.66;5031067;28;19932;-48
2023/06/03 08:50:11;;;;;;;;;;;32.00;32.30;;;25.13;40.42;95380.28;5033456;28;19908;-47
2023/06/03 08:52:43;;;;;;;;;;;32.10;32.30;;;25.15;40.26;95386.13;5032752;28;19974;-48
2023/06/03 08:55:15;;;;;;;;;;;32.10;32.20;;;24.95;41.27;95391.97;5032482;28;19916;-47
2023/06/03 08:58:09;;;;;;;;;;;32.20;32.10;;;24.95;40.52;95387.31;5048140;28;19912;-48
2023/06/03 09:00:36;;;;;;;;;;;32.30;32.10;;;24.96;40.83;95388.88;5032255;28;20367;-47
2023/06/03 09:03:05;;;;;;;;;;;32.30;32.40;;;25.26;41.56;95390.97;5027571;28;19936;-47
2023/06/03 09:05:33;;;;;;;;;;;32.40;31.80;;;25.47;40.03;95388.59;5020823;28;19908;-49
2023/06/03 09:08:00;;;;;;;;;;;32.50;31.70;;;25.83;39.44;95397.38;5048921;28;19916;-49
2023/06/03 09:10:26;;;;;;;;;;;32.60;31.60;;;26.23;38.97;95388.59;5047608;28;19915;-47
2023/06/03 09:12:56;;;;;;;;;;;32.80;31.60;;;26.64;38.15;95394.19;5043955;23;19932;-56
2023/06/03 09:15:22;;;;;;;;;;;32.90;31.60;;;26.66;37.78;95391.88;5017565;28;19916;-56
2023/06/03 09:17:48;;;;;;;;;;;33.10;31.50;;;26.94;37.43;95388.66;5009822;28;19943;-52
2023/06/03 09:20:15;;;;;;;;;;;33.30;31.30;;;26.94;36.91;95387.88;5031093;28;19948;-57
2023/06/03 09:22:48;;;;;;;;;;;33.50;31.20;;;25.89;38.74;95389.69;5016680;28;19908;-54
2023/06/03 09:25:14;;;;;;;;;;;33.60;31.00;;;26.59;39.04;95391.00;4987982;28;20422;-54
2023/06/03 09:27:40;;;;;;;;;;;33.70;30.90;;;26.90;37.22;95390.59;5002097;28;19909;-49
2023/06/03 09:30:07;;;;;;;;;;;33.80;30.70;;;27.14;36.87;95388.50;4996748;28;19932;-55
2023/06/03 09:32:37;;;;;;;;;;;33.90;30.60;;;26.81;38.01;95381.88;4992713;28;20399;-56
2023/06/03 09:35:04;;;;;;;;;;;33.90;30.30;;;26.36;38.44;95388.38;5013471;28;20371;-56
2023/06/03 09:37:31;;;;;;;;;;;34.00;30.90;;;26.11;38.72;95385.31;5013382;28;19940;-55
2023/06/03 09:39:57;;;;;;;;;;;34.00;30.10;;;26.85;38.33;95396.38;5007937;28;20283;-57
2023/06/03 09:42:39;;;;;;;;;;;34.00;30.00;;;27.09;37.34;95388.81;5009867;28;19909;-57
2023/06/03 09:45:06;;;;;;;;;;;34.10;30.00;;;26.98;36.61;95386.78;5005541;28;19955;-56
2023/06/03 09:47:39;;;;;;;;;;;34.10;29.90;;;26.90;37.59;95381.59;4999152;28;19931;-57
2023/06/03 09:50:11;;;;;;;;;;;34.10;29.80;;;26.63;37.64;95394.56;4997369;28;20275;-56
2023/06/03 09:52:37;;;;;;;;;;;34.10;29.70;;;27.09;36.69;95389.59;5005573;28;19913;-53
2023/06/03 09:55:06;;;;;;;;;;;34.20;29.70;;;26.87;37.19;95379.63;5000949;28;19935;-55
2023/06/03 09:57:33;;;;;;;;;;;34.20;29.60;;;27.03;36.94;95388.38;4997824;28;19960;-56
2023/06/03 10:00:07;;;;;;;;;;;34.20;29.50;;;27.11;36.65;95390.03;5012974;28;20015;-56
2023/06/03 10:02:44;;;;;;;;;;;34.30;29.40;;;27.43;35.60;95390.34;4998860;28;19909;-56
2023/06/03 10:05:26;;;;;;;;;;;34.40;29.40;;;27.65;35.82;95385.81;4983604;28;19913;-54
2023/06/03 10:07:52;;;;;;;;;;;34.60;29.30;;;27.72;36.00;95392.50;4990214;28;19917;-55
2023/06/03 10:10:18;;;;;;;;;;;34.70;29.10;;;28.22;34.42;95379.19;4990097;28;19909;-55
2023/06/03 10:12:48;;;;;;;;;;;34.90;29.10;;;28.04;34.80;95381.81;4991414;28;19917;-57
2023/06/03 10:15:33;;;;;;;;;;;34.80;29.10;;;28.21;35.26;95370.19;4990356;28;19913;-57
2023/06/03 10:17:58;;;;;;;;;;;34.80;29.10;;;27.86;35.78;95377.03;4990854;28;19943;-57
2023/06/03 10:20:50;;;;;;;;;;;35.00;28.80;;;28.13;35.58;95363.09;4991961;28;19909;-54
2023/06/03 10:23:17;;;;;;;;;;;35.10;28.70;;;28.39;35.29;95372.97;4988286;28;20280;-55
2023/06/03 10:25:47;;;;;;;;;;;35.30;28.60;;;28.92;34.49;95369.66;4991819;28;20364;-54
2023/06/03 10:28:13;;;;;;;;;;;35.50;28.60;;;28.75;32.21;95368.47;4989908;28;19917;-56
2023/06/03 10:30:42;;;;;;;;;;;35.80;28.40;;;28.26;33.99;95363.53;4991550;28;19917;-57
2023/06/03 10:33:10;;;;;;;;;;;35.90;28.10;;;27.86;34.43;95366.06;4990176;28;19921;-57
2023/06/03 10:35:38;;;;;;;;;;;36.00;28.00;;;28.26;34.95;95363.53;5000152;28;19917;-57
2023/06/03 10:38:08;;;;;;;;;;;36.00;28.00;;;28.42;34.66;95360.50;4992388;28;20450;-56
2023/06/03 10:40:35;;;;;;;;;;;36.00;27.90;;;28.64;36.13;95361.38;4991754;28;20027;-56
2023/06/03 10:43:03;;;;;;;;;;;36.00;27.90;;;28.31;34.79;95361.22;4992420;28;19932;-57
2023/06/03 10:45:31;;;;;;;;;;;36.00;27.80;;;28.61;34.68;95351.97;4991564;28;19913;-55
2023/06/03 10:48:04;;;;;;;;;;;36.00;27.80;;;28.88;34.51;95346.19;5035293;28;20007;-52
2023/06/03 10:51:29;;;;;;;;;;;36.00;27.80;;;28.91;33.13;95348.94;5011973;28;20023;-52
2023/06/03 10:54:13;;;;;;;;;;;36.10;27.80;;;28.81;33.04;95355.19;4999051;28;20375;-54
2023/06/03 10:57:05;;;;;;;;;;;36.20;27.70;;;29.12;33.38;95342.72;5008155;28;19917;-55
2023/06/03 10:59:44;;;;;;;;;;;36.30;27.70;;;28.54;34.30;95339.03;5005197;28;19909;-52
2023/06/03 11:02:14;;;;;;;;;;;36.30;27.50;;;27.98;35.74;95343.06;5011944;28;20359;-53
2023/06/03 11:04:40;;;;;;;;;;;36.20;27.40;;;28.21;35.14;95347.50;5007490;28;19917;-54
2023/06/03 11:07:33;;;;;;;;;;;36.20;27.40;;;28.69;33.77;95348.09;5012173;28;19916;-55
2023/06/03 11:10:00;;;;;;;;;;;36.30;27.40;;;28.77;32.83;95346.94;4996664;28;20359;-52
2023/06/03 11:12:50;;;;;;;;;;;36.30;27.30;;;28.99;33.50;95347.00;5011695;28;20298;-56
2023/06/03 11:15:16;;;;;;;;;;;36.40;27.20;;;29.54;32.97;95346.66;4998943;28;19939;-52
2023/06/03 11:18:17;;;;;;;;;;;36.50;27.30;;;29.15;32.64;95344.69;5004854;28;19917;-56
2023/06/03 11:20:42;;;;;;;;;;;36.60;27.30;;;28.91;33.57;95342.66;4999044;28;19917;-57
2023/06/03 11:23:08;;;;;;;;;;;36.70;27.00;;;28.79;33.38;95341.06;5011487;28;19917;-56
2023/06/03 11:25:34;;;;;;;;;;;36.70;26.90;;;28.97;34.08;95338.38;5009809;28;19909;-55
2023/06/03 11:28:29;;;;;;;;;;;36.70;26.80;;;29.37;32.76;95342.75;5005628;28;19915;-53